This is the latest recevied weather packets stored in our database for station/object JI1UWB-13. If no packets are shown the sender has not sent any weather packets the latest 10 day(s).
| Time | Temp. | Humidity | Pressure | Rain* | Wind** | Luminosity | Snow |
|---|---|---|---|---|---|---|---|
| 1777199117 | 18.33° C | 65% | 1017.6 hPa | 0 mm | - | - | - |
| 1777196716 | 18.89° C | 62% | 1017.6 hPa | 0 mm | - | - | - |
| 1777181718 | 22.22° C | 39% | 1017.5 hPa | 0 mm | - | - | - |
| 1777180518 | 22.78° C | 37% | 1017.7 hPa | 0 mm | - | - | - |
| 1777179336 | 23.89° C | 34% | 1018.1 hPa | 0 mm | - | - | - |
| 1777176918 | 25° C | 32% | 1018.9 hPa | 0 mm | - | - | - |
| 1777174517 | 23.33° C | 35% | 1019.2 hPa | 0 mm | - | - | - |
| 1777164916 | 21.11° C | 42% | 1022.3 hPa | 0 mm | - | - | - |
| 1777158918 | 18.33° C | 52% | 1023.4 hPa | 0 mm | - | - | - |
| 1777158317 | 19.44° C | 49% | 1023.3 hPa | 0 mm | - | - | - |
| 1777157118 | 17.78° C | 54% | 1023.3 hPa | 0 mm | - | - | - |
| 1777155916 | 17.22° C | 57% | 1023.3 hPa | 0 mm | - | - | - |
| 1777154717 | 16.67° C | 60% | 1023.5 hPa | 0 mm | - | - | - |
| 1777154119 | 17.22° C | 59% | 1023.4 hPa | 0 mm | - | - | - |
| 1777149918 | 11.11° C | 91% | 1023.3 hPa | 0 mm | - | - | - |
| 1777141517 | 11.11° C | 92% | 1022.9 hPa | 0 mm | - | - | - |
| 1777140318 | 11.11° C | 92% | 1023.1 hPa | 0 mm | - | - | - |
| 1777139116 | 11.11° C | 90% | 1022.9 hPa | 0 mm | - | - | - |
| 1777137917 | 11.67° C | 88% | 1022.9 hPa | 0 mm | - | - | - |
| 1777137316 | 11.67° C | 87% | 1022.8 hPa | 0 mm | - | - | - |
| 1777121717 | 12.78° C | 68% | 1023.9 hPa | 0 mm | - | - | - |
| 1777121116 | 13.33° C | 68% | 1024.1 hPa | 0 mm | - | - | - |
| 1777118718 | 13.33° C | 66% | 1024.4 hPa | 0 mm | - | - | - |
| 1777114517 | 14.44° C | 63% | 1023.9 hPa | 0 mm | - | - | - |
| 1777113338 | 14.44° C | 62% | 1023.7 hPa | 0 mm | - | - | - |
* Rain latest hour (hover to see other rain measurements)
** Current wind speed in m/s (hover to see current wind gust speed)